Time;durP1;ratioP1;P1;durP2;ratioP2;P2;SDS_P1;SDS_P2;PMS_P1;PMS_P2;Temp;Humidity;BMP_temperature;BMP_pressure;BME280_temperature;BME280_humidity;BME280_pressure;Samples;Min_cycle;Max_cycle;Signal;HPM_P1;HPM_P2
2023/04/02 00:00:23;;;;;;;51.87;28.40;;;;;;;10.12;90.11;99006.28;124731;1099;101916;-72
2023/04/02 00:03:20;;;;;;;49.70;27.83;;;;;;;10.12;89.99;99008.91;124764;1099;103863;-70
2023/04/02 00:05:53;;;;;;;47.70;26.37;;;;;;;10.12;90.11;99009.78;124697;1099;103273;-74
2023/04/02 00:08:39;;;;;;;49.47;26.53;;;;;;;10.12;90.11;99008.91;124667;1098;104200;-70
2023/04/02 00:11:30;;;;;;;46.73;25.87;;;;;;;10.11;89.88;99009.76;124678;1099;104251;-70
2023/04/02 00:14:03;;;;;;;43.63;25.70;;;;;;;10.07;89.67;99006.22;124713;1099;104175;-71
2023/04/02 00:16:35;;;;;;;47.93;26.55;;;;;;;10.04;89.90;99009.67;124765;1099;104169;-70
2023/04/02 00:19:13;;;;;;;44.70;24.97;;;;;;;10.04;89.95;99007.05;124745;1099;104198;-70
2023/04/02 00:21:46;;;;;;;42.33;24.57;;;;;;;10.05;90.36;99010.54;124688;1099;104220;-70
2023/04/02 00:24:20;;;;;;;44.27;25.83;;;;;;;10.04;89.97;99009.67;124510;1099;104231;-70
2023/04/02 00:26:52;;;;;;;48.38;24.98;;;;;;;10.04;89.93;99006.18;124708;1099;104191;-71
2023/04/02 00:29:23;;;;;;;44.27;25.87;;;;;;;10.02;89.56;99000.02;124711;1099;104201;-71
2023/04/02 00:31:59;;;;;;;48.80;25.60;;;;;;;10.03;89.68;98999.17;124740;1099;104219;-69
2023/04/02 00:34:33;;;;;;;42.70;26.30;;;;;;;10.04;90.12;99000.94;124786;1099;104176;-70
2023/04/02 00:37:05;;;;;;;48.73;25.63;;;;;;;10.04;89.99;99006.18;124720;1099;104197;-70
2023/04/02 00:39:40;;;;;;;42.27;24.57;;;;;;;10.04;90.02;99001.81;124765;1099;104248;-70
2023/04/02 00:42:13;;;;;;;40.90;24.80;;;;;;;10.05;90.23;99003.58;124387;1099;102129;-70
2023/04/02 00:44:46;;;;;;;44.00;24.40;;;;;;;10.06;90.29;99010.56;124644;1099;104166;-70
2023/04/02 00:47:21;;;;;;;46.98;25.05;;;;;;;10.07;89.79;99006.22;124327;1099;102556;-70
2023/04/02 00:49:57;;;;;;;45.17;24.67;;;;;;;10.05;89.92;98997.44;124760;1099;104189;-71
2023/04/02 00:52:32;;;;;;;41.63;24.13;;;;;;;10.02;89.94;99003.54;124534;1099;104287;-72
2023/04/02 00:55:09;;;;;;;40.70;22.03;;;;;;;9.98;90.49;99004.34;124756;1099;101852;-70
2023/04/02 00:57:44;;;;;;;43.37;23.87;;;;;;;9.96;89.82;98997.34;124381;1099;102122;-70
2023/04/02 01:00:23;;;;;;;47.07;24.33;;;;;;;9.93;90.11;98998.17;124689;1099;104195;-72
2023/04/02 01:03:27;;;;;;;43.85;23.75;;;;;;;9.90;90.36;98998.12;124745;1099;101932;-71
2023/04/02 01:06:09;;;;;;;42.73;22.80;;;;;;;9.86;90.80;98996.30;124779;1099;102814;-71
2023/04/02 01:09:10;;;;;;;45.67;24.07;;;;;;;9.85;90.78;98995.44;124758;1099;104198;-71
2023/04/02 01:12:12;;;;;;;45.17;23.20;;;;;;;9.85;90.65;99005.05;124737;1099;118226;-70
2023/04/02 01:14:56;;;;;;;39.73;22.93;;;;;;;9.85;90.62;99003.30;124331;1100;104281;-71
2023/04/02 01:17:41;;;;;;;41.20;22.63;;;;;;;9.84;90.29;99005.89;124423;1099;104051;-71
2023/04/02 01:20:43;;;;;;;41.40;21.25;;;;;;;9.82;90.97;98994.52;124691;1099;104300;-71
2023/04/02 01:23:20;;;;;;;45.77;21.97;;;;;;;9.78;90.98;99000.56;124703;1099;104252;-71
2023/04/02 01:25:57;;;;;;;41.17;21.90;;;;;;;9.74;90.92;99007.50;124313;1099;104375;-70
2023/04/02 01:28:37;;;;;;;43.80;22.53;;;;;;;9.77;91.10;99014.51;124753;1099;104172;-71
2023/04/02 01:31:10;;;;;;;42.30;22.00;;;;;;;9.80;90.66;99010.22;124764;1099;104210;-71
2023/04/02 01:33:43;;;;;;;45.00;20.80;;;;;;;9.80;90.38;99002.36;124804;1099;103700;-71
2023/04/02 01:36:22;;;;;;;39.85;22.15;;;;;;;9.81;90.71;99005.84;124765;1099;104239;-71
2023/04/02 01:39:03;;;;;;;39.60;21.87;;;;;;;9.79;91.08;99008.44;124773;1098;104257;-71
2023/04/02 01:41:39;;;;;;;43.83;22.73;;;;;;;9.83;90.73;99006.73;124637;1099;104198;-71
2023/04/02 01:44:15;;;;;;;40.00;21.87;;;;;;;9.83;90.54;99007.64;124700;1099;101820;-71
2023/04/02 01:46:49;;;;;;;40.13;21.13;;;;;;;9.81;91.25;99006.72;124305;1099;104219;-73
2023/04/02 01:49:22;;;;;;;47.50;23.77;;;;;;;9.80;91.41;99001.45;124689;1099;104204;-72
2023/04/02 01:51:56;;;;;;;39.57;21.83;;;;;;;9.76;91.38;99004.91;124727;1099;104181;-71
2023/04/02 01:54:29;;;;;;;43.53;22.80;;;;;;;9.73;91.55;98997.88;124299;1099;104395;-71
2023/04/02 01:57:00;;;;;;;37.63;22.93;;;;;;;9.68;91.29;98991.70;124331;1099;101884;-71
2023/04/02 01:59:33;;;;;;;38.60;23.17;;;;;;;9.66;91.64;98994.29;124336;1100;101906;-70
2023/04/02 02:02:09;;;;;;;41.63;24.10;;;;;;;9.66;92.01;98989.05;124386;1099;105112;-72
2023/04/02 02:04:42;;;;;;;40.90;23.37;;;;;;;9.65;92.03;98992.52;124343;1098;104194;-71
2023/04/02 02:07:17;;;;;;;40.20;23.53;;;;;;;9.63;91.38;98986.39;124292;1100;104265;-71
2023/04/02 02:09:51;;;;;;;41.13;23.40;;;;;;;9.63;91.38;98999.48;124786;1099;104277;-72
2023/04/02 02:12:23;;;;;;;39.43;22.83;;;;;;;9.63;91.88;98993.34;124336;1099;104220;-71
2023/04/02 02:14:54;;;;;;;38.97;22.53;;;;;;;9.62;92.08;98989.85;124802;1099;104185;-71
2023/04/02 02:17:33;;;;;;;38.53;22.17;;;;;;;9.61;92.26;98981.97;124661;1099;104245;-71
2023/04/02 02:20:09;;;;;;;40.03;21.90;;;;;;;9.61;92.48;98987.20;124609;1099;104181;-71
2023/04/02 02:22:44;;;;;;;40.63;21.93;;;;;;;9.60;92.19;98988.05;124688;1099;102028;-71
2023/04/02 02:25:19;;;;;;;38.63;22.43;;;;;;;9.61;91.99;98984.59;124571;1099;104224;-70
2023/04/02 02:28:03;;;;;;;38.57;21.37;;;;;;;9.61;92.30;98989.83;124261;1099;104214;-71
2023/04/02 02:30:38;;;;;;;40.50;21.93;;;;;;;9.60;92.66;98991.58;124628;1099;104179;-72
2023/04/02 02:33:17;;;;;;;38.37;21.40;;;;;;;9.58;92.32;98990.65;124139;1099;104236;-71
2023/04/02 02:35:54;;;;;;;38.93;22.17;;;;;;;9.55;92.58;98998.45;124472;1099;103311;-71
2023/04/02 02:38:42;;;;;;;39.37;20.67;;;;;;;9.51;94.47;98992.30;124660;1099;104179;-72
2023/04/02 02:41:26;;;;;;;37.57;20.67;;;;;;;9.49;93.30;98993.13;124202;1099;104280;-76
2023/04/02 02:44:04;;;;;;;33.90;18.47;;;;;;;9.46;93.14;98996.59;124238;1099;102043;-72
2023/04/02 02:46:38;;;;;;;32.40;18.43;;;;;;;9.43;93.85;99001.78;124239;1099;103062;-71
2023/04/02 02:49:17;;;;;;;33.50;18.57;;;;;;;9.39;93.61;99002.58;124268;1099;104396;-72
2023/04/02 02:51:53;;;;;;;30.77;16.73;;;;;;;9.38;94.22;99007.78;124213;1100;104258;-71
2023/04/02 02:54:34;;;;;;;32.20;17.73;;;;;;;9.33;93.62;99003.37;124198;1099;101891;-71
2023/04/02 02:57:09;;;;;;;32.10;17.87;;;;;;;9.32;93.64;99004.22;124271;1099;101944;-71
2023/04/02 02:59:42;;;;;;;32.93;18.40;;;;;;;9.33;93.78;99007.70;124263;1099;104450;-71
2023/04/02 03:02:17;;;;;;;33.07;17.63;;;;;;;9.32;93.85;99000.73;124202;1099;102371;-72
2023/04/02 03:04:51;;;;;;;28.23;17.33;;;;;;;9.31;93.90;99007.68;124436;1099;103436;-70
2023/04/02 03:07:28;;;;;;;31.63;16.90;;;;;;;9.30;93.58;99005.94;124540;1099;104223;-71
2023/04/02 03:10:15;;;;;;;31.20;16.70;;;;;;;9.29;93.91;99004.17;124365;1099;104377;-76
2023/04/02 03:12:51;;;;;;;31.43;16.47;;;;;;;9.29;93.70;98998.06;124649;1099;104239;-70
2023/04/02 03:15:31;;;;;;;28.23;15.30;;;;;;;9.27;93.55;99000.66;124246;1099;104251;-71
2023/04/02 03:18:07;;;;;;;28.80;16.07;;;;;;;9.28;93.67;99002.39;124243;1099;101942;-71
2023/04/02 03:20:47;;;;;;;25.07;14.40;;;;;;;9.26;94.25;99001.50;124289;1099;104217;-71
2023/04/02 03:23:23;;;;;;;25.07;14.00;;;;;;;9.25;93.51;99007.58;124675;1099;104351;-71
2023/04/02 03:26:01;;;;;;;23.77;13.80;;;;;;;9.26;93.56;99013.72;124704;1098;104178;-71
2023/04/02 03:28:39;;;;;;;24.43;13.60;;;;;;;9.26;93.17;99009.35;124374;1099;101948;-71
2023/04/02 03:31:16;;;;;;;28.67;14.97;;;;;;;9.21;93.94;99005.78;124465;1099;101918;-71
2023/04/02 03:33:55;;;;;;;25.23;15.27;;;;;;;9.22;94.09;99006.66;124296;1099;104274;-71
2023/04/02 03:36:32;;;;;;;26.97;14.07;;;;;;;9.20;93.46;99004.01;124422;1099;103145;-71
2023/04/02 03:39:13;;;;;;;25.93;14.23;;;;;;;9.19;94.26;99012.70;124167;1099;104139;-72
2023/04/02 03:41:52;;;;;;;26.73;13.85;;;;;;;9.19;93.99;99017.94;124447;1099;104136;-71
2023/04/02 03:44:30;;;;;;;27.80;13.87;;;;;;;9.17;94.53;99012.67;124632;1098;104233;-70
2023/04/02 03:47:14;;;;;;;24.63;14.00;;;;;;;9.17;94.27;99001.34;124466;1099;104321;-70
2023/04/02 03:49:52;;;;;;;25.50;13.23;;;;;;;9.18;93.50;99011.83;124713;1099;104176;-70
2023/04/02 03:52:27;;;;;;;24.07;13.80;;;;;;;9.20;93.84;99018.84;124291;1099;104089;-71
2023/04/02 03:55:02;;;;;;;27.17;13.33;;;;;;;9.19;94.00;99012.70;124392;1099;104192;-72
2023/04/02 03:57:40;;;;;;;24.80;12.73;;;;;;;9.21;93.52;99024.11;124200;1099;104219;-71
2023/04/02 04:00:20;;;;;;;25.43;13.43;;;;;;;9.20;93.37;99024.08;124719;1098;104367;-71
2023/04/02 04:02:58;;;;;;;22.73;12.73;;;;;;;9.20;93.72;99031.92;124336;1099;103195;-74
2023/04/02 04:05:34;;;;;;;25.57;12.80;;;;;;;9.20;94.16;99032.80;124843;1099;107120;-73
2023/04/02 04:08:13;;;;;;;23.20;13.90;;;;;;;9.20;93.61;99031.92;124672;1098;104217;-71
2023/04/02 04:10:46;;;;;;;25.60;14.37;;;;;;;9.20;94.25;99029.31;124708;1099;101982;-71
2023/04/02 04:13:23;;;;;;;27.33;13.27;;;;;;;9.20;94.20;99032.80;124707;1099;104348;-71
2023/04/02 04:15:59;;;;;;;27.50;14.40;;;;;;;9.21;93.78;99031.95;124311;1099;103256;-74
2023/04/02 04:18:40;;;;;;;27.00;14.57;;;;;;;9.22;94.06;99036.31;124317;1099;104345;-72
2023/04/02 04:21:28;;;;;;;26.27;15.33;;;;;;;9.25;94.38;99035.50;124669;1099;102805;-71
2023/04/02 04:24:04;;;;;;;26.43;14.50;;;;;;;9.25;93.89;99033.75;124281;1098;104217;-73
2023/04/02 04:26:48;;;;;;;27.37;15.10;;;;;;;9.26;93.88;99045.99;124313;1099;104377;-71
2023/04/02 04:29:37;;;;;;;29.35;15.60;;;;;;;9.27;94.33;99042.53;124204;1102;104280;-77
2023/04/02 04:32:25;;;;;;;28.70;14.77;;;;;;;9.26;93.84;99045.99;124354;1099;104416;-71
2023/04/02 04:35:03;;;;;;;33.17;16.83;;;;;;;9.28;94.50;99043.41;124322;1099;104162;-72
2023/04/02 04:37:39;;;;;;;31.70;16.07;;;;;;;9.27;93.68;99045.16;124730;1099;104213;-71
2023/04/02 04:40:20;;;;;;;27.57;15.37;;;;;;;9.28;94.66;99049.51;124418;1099;104172;-72
2023/04/02 04:42:56;;;;;;;30.10;17.00;;;;;;;9.28;94.60;99046.89;124400;1099;104245;-72
2023/04/02 04:45:44;;;;;;;29.83;15.93;;;;;;;9.27;93.94;99050.39;124709;1099;104283;-72
2023/04/02 04:48:20;;;;;;;30.63;15.83;;;;;;;9.26;95.11;99050.36;124362;1099;104178;-73
2023/04/02 04:50:55;;;;;;;33.47;15.43;;;;;;;9.25;94.87;99044.22;124518;1099;104300;-72
2023/04/02 04:53:30;;;;;;;30.60;15.70;;;;;;;9.24;94.76;99046.81;124474;1099;101983;-72
2023/04/02 04:56:05;;;;;;;29.20;15.00;;;;;;;9.21;95.20;99052.89;124794;1099;102530;-72
2023/04/02 04:58:48;;;;;;;32.60;15.10;;;;;;;9.21;94.65;99058.13;124607;1099;104073;-72
2023/04/02 05:01:27;;;;;;;29.63;15.53;;;;;;;9.21;95.03;99046.75;124389;1098;103289;-73
2023/04/02 05:04:04;;;;;;;28.30;14.73;;;;;;;9.22;95.40;99062.48;124429;1099;104191;-74
2023/04/02 05:06:41;;;;;;;28.57;14.03;;;;;;;9.20;95.31;99058.10;124864;1099;103674;-74
2023/04/02 05:09:20;;;;;;;29.20;15.33;;;;;;;9.16;95.62;99057.14;124559;1099;104272;-72
2023/04/02 05:11:56;;;;;;;25.80;14.00;;;;;;;9.12;96.32;99055.34;124535;1099;104386;-73
2023/04/02 05:14:34;;;;;;;27.20;13.93;;;;;;;9.08;96.92;99061.36;124940;1099;104171;-74
2023/04/02 05:17:10;;;;;;;30.47;14.10;;;;;;;9.07;96.66;99059.59;124539;1099;110067;-75
2023/04/02 05:19:48;;;;;;;32.03;14.27;;;;;;;9.07;95.82;99067.44;124534;1099;104255;-74
2023/04/02 05:22:28;;;;;;;28.00;13.90;;;;;;;9.09;95.58;99065.75;124697;1099;101950;-78
2023/04/02 05:25:10;;;;;;;27.13;13.03;;;;;;;9.09;95.82;99076.22;124977;1099;104309;-76
2023/04/02 05:27:48;;;;;;;28.83;13.63;;;;;;;9.08;96.03;99070.08;124896;1099;102265;-76
2023/04/02 05:30:39;;;;;;;26.93;12.37;;;;;;;9.07;96.71;99070.05;124930;1099;104208;-78
2023/04/02 05:33:22;;;;;;;27.70;12.60;;;;;;;9.04;97.06;99075.23;125067;1099;104217;-76
2023/04/02 05:36:00;;;;;;;26.23;12.40;;;;;;;9.03;97.92;99084.82;124939;1099;104220;-77
2023/04/02 05:38:36;;;;;;;24.83;12.47;;;;;;;9.01;96.62;99083.92;124833;1099;104163;-76
2023/04/02 05:41:18;;;;;;;22.80;11.80;;;;;;;9.00;97.12;99083.02;124955;1099;104268;-77
2023/04/02 05:43:56;;;;;;;25.97;12.17;;;;;;;8.98;99.08;99082.12;125221;1099;104366;-78
2023/04/02 05:46:33;;;;;;;26.13;11.83;;;;;;;8.98;99.88;99087.34;125182;1099;102103;-77
2023/04/02 05:49:15;;;;;;;22.27;11.20;;;;;;;8.97;100.00;99085.58;125194;1099;104294;-77
2023/04/02 05:51:50;;;;;;;22.20;11.10;;;;;;;8.96;100.00;99082.92;125335;1099;104354;-77
2023/04/02 05:54:27;;;;;;;22.63;11.17;;;;;;;8.95;100.00;99091.66;125195;1099;102011;-76
2023/04/02 05:57:07;;;;;;;21.73;10.83;;;;;;;8.94;100.00;99089.88;125231;1099;101844;-78
2023/04/02 05:59:41;;;;;;;22.47;10.53;;;;;;;8.93;100.00;99099.47;124721;1099;104172;-76
2023/04/02 06:02:17;;;;;;;;;;;;;;;8.93;100.00;99099.47;125201;1099;104262;-76
2023/04/02 06:04:55;;;;;;;18.93;9.60;;;;;;;8.94;100.00;99096.02;124833;1098;101964;-78
2023/04/02 06:07:34;;;;;;;20.17;9.40;;;;;;;8.95;100.00;99095.14;125498;1099;102407;-79
2023/04/02 06:10:12;;;;;;;18.87;9.57;;;;;;;8.95;100.00;99097.75;125503;1099;101949;-79
2023/04/02 06:12:48;;;;;;;20.60;9.40;;;;;;;8.95;100.00;99102.98;125365;1099;105864;-79
2023/04/02 06:15:24;;;;;;;19.70;9.57;;;;;;;8.95;100.00;99102.98;125113;1099;104264;-80
2023/04/02 06:18:08;;;;;;;20.67;9.03;;;;;;;8.97;100.00;99110.86;125351;1099;102195;-79
2023/04/02 06:20:41;;;;;;;17.50;8.87;;;;;;;8.97;100.00;99106.50;125455;1099;104271;-80
2023/04/02 06:23:18;;;;;;;19.43;8.67;;;;;;;8.98;100.00;99110.03;125435;1099;104230;-80
2023/04/02 06:25:53;;;;;;;15.45;8.40;;;;;;;8.99;100.00;99110.05;125094;1099;104265;-80
2023/04/02 06:28:31;;;;;;;22.10;8.77;;;;;;;9.00;100.00;99111.80;125393;1099;119187;-79
2023/04/02 06:31:07;;;;;;;20.97;8.70;;;;;;;9.04;100.00;99114.47;125368;1099;102213;-78
2023/04/02 06:33:40;;;;;;;15.73;7.27;;;;;;;9.06;100.00;99118.02;125400;1099;104347;-77
2023/04/02 06:36:13;;;;;;;18.13;8.07;;;;;;;9.08;100.00;99118.93;125282;1099;104159;-79
2023/04/02 06:38:45;;;;;;;14.40;8.00;;;;;;;9.10;100.00;99117.21;125042;1099;101903;-79
2023/04/02 06:41:20;;;;;;;14.30;7.27;;;;;;;9.12;100.00;99121.63;125022;1099;102612;-77
2023/04/02 06:44:16;;;;;;;14.87;7.70;;;;;;;9.15;100.00;99126.06;125217;1098;102242;-78
2023/04/02 06:47:22;;;;;;;17.00;7.73;;;;;;;9.15;100.00;99131.30;125003;1099;102363;-78
2023/04/02 06:49:58;;;;;;;13.50;6.97;;;;;;;9.17;100.00;99129.58;125378;1099;104219;-78
2023/04/02 06:52:34;;;;;;;11.30;6.57;;;;;;;9.17;100.00;99134.81;125430;1099;102088;-78
2023/04/02 06:55:21;;;;;;;13.60;6.40;;;;;;;9.18;100.00;99136.59;125322;1099;102731;-78
2023/04/02 06:57:53;;;;;;;13.00;7.10;;;;;;;9.18;100.00;99136.59;125125;1099;102386;-77
2023/04/02 07:00:33;;;;;;;13.50;7.13;;;;;;;9.18;100.00;99139.20;124918;1099;101919;-77
2023/04/02 07:03:08;;;;;;;13.60;7.13;;;;;;;9.16;100.00;99139.17;125094;1099;104200;-78
2023/04/02 07:05:39;;;;;;;15.98;7.12;;;;;;;9.15;100.00;99140.02;125242;1099;104252;-76
2023/04/02 07:08:11;;;;;;;14.67;7.40;;;;;;;9.17;100.00;99142.66;125007;1099;102243;-76
2023/04/02 07:10:42;;;;;;;13.73;7.10;;;;;;;9.16;100.00;99151.36;125069;1099;101996;-76
2023/04/02 07:13:17;;;;;;;13.53;7.20;;;;;;;9.16;100.00;99147.02;124890;1099;102431;-76
2023/04/02 07:15:51;;;;;;;12.67;6.97;;;;;;;9.18;100.00;99150.55;125112;1099;104233;-77
2023/04/02 07:18:27;;;;;;;;;;;;;;;9.18;100.00;99150.55;124764;1099;104188;-76
2023/04/02 07:20:59;;;;;;;12.37;6.53;;;;;;;9.22;100.00;99146.24;124603;1099;104192;-75
2023/04/02 07:23:31;;;;;;;13.17;6.23;;;;;;;9.24;100.00;99149.80;125057;1099;104236;-76
2023/04/02 07:26:03;;;;;;;12.70;6.63;;;;;;;9.24;100.00;99151.50;125130;1099;101935;-76
2023/04/02 07:28:34;;;;;;;11.27;6.00;;;;;;;9.26;100.00;99147.20;125049;1098;104182;-76
2023/04/02 07:31:09;;;;;;;11.20;6.60;;;;;;;9.27;100.00;99147.23;125103;1099;102934;-74
2023/04/02 07:33:41;;;;;;;11.83;6.50;;;;;;;9.30;100.00;99143.77;125046;1099;104281;-74
2023/04/02 07:36:15;;;;;;;13.37;6.90;;;;;;;9.35;100.00;99144.77;124750;1099;104178;-75
2023/04/02 07:38:47;;;;;;;12.17;6.90;;;;;;;9.43;100.00;99150.14;124811;1099;101888;-74
2023/04/02 07:41:19;;;;;;;15.37;8.07;;;;;;;9.48;100.00;99144.12;124829;1099;104169;-75
2023/04/02 07:43:51;;;;;;;16.83;8.93;;;;;;;9.49;100.00;99148.52;124892;1099;102019;-76
2023/04/02 07:46:23;;;;;;;17.73;9.70;;;;;;;9.51;100.00;99144.17;124824;1099;104191;-75
2023/04/02 07:48:54;;;;;;;17.03;8.57;;;;;;;9.55;100.00;99137.25;125077;1099;101859;-75
2023/04/02 07:51:27;;;;;;;16.50;7.57;;;;;;;9.54;100.00;99145.98;125279;1099;104123;-74
2023/04/02 07:54:00;;;;;;;11.00;5.90;;;;;;;9.52;100.00;99148.57;125055;1099;102332;-75
2023/04/02 07:56:31;;;;;;;12.67;5.60;;;;;;;9.47;100.00;99144.09;125125;1099;103549;-74
2023/04/02 07:59:03;;;;;;;10.10;5.50;;;;;;;9.45;100.00;99148.42;125101;1099;104165;-76
2023/04/02 08:01:35;;;;;;;12.60;6.07;;;;;;;9.44;100.00;99146.66;125279;1099;102904;-77
2023/04/02 08:04:15;;;;;;;10.50;6.17;;;;;;;9.42;100.00;99150.98;125381;1099;102771;-75
2023/04/02 08:06:47;;;;;;;12.97;6.03;;;;;;;9.40;100.00;99160.56;125243;1099;102111;-77
2023/04/02 08:09:19;;;;;;;13.80;6.60;;;;;;;9.39;100.00;99150.93;125080;1099;104172;-75
2023/04/02 08:11:50;;;;;;;10.57;5.47;;;;;;;9.39;100.00;99150.93;125000;1099;101999;-75
2023/04/02 08:14:21;;;;;;;11.85;6.70;;;;;;;9.38;100.00;99159.62;125068;1099;102223;-75
2023/04/02 08:16:55;;;;;;;9.30;4.97;;;;;;;9.34;100.00;99156.95;125182;1099;101888;-76
2023/04/02 08:19:27;;;;;;;9.55;5.00;;;;;;;9.32;100.00;99158.67;124810;1099;101894;-75
2023/04/02 08:21:58;;;;;;;9.37;4.87;;;;;;;9.31;100.00;99162.13;125276;1099;102287;-77
2023/04/02 08:24:29;;;;;;;8.23;4.67;;;;;;;9.32;100.00;99163.91;124802;1099;104272;-77
2023/04/02 08:27:01;;;;;;;7.60;4.57;;;;;;;9.30;100.00;99160.38;125361;1099;104072;-77
2023/04/02 08:29:32;;;;;;;9.63;4.50;;;;;;;9.26;100.00;99166.40;125409;1099;104271;-78
2023/04/02 08:32:04;;;;;;;8.83;4.40;;;;;;;9.21;100.00;99157.58;125438;1099;104217;-79
2023/04/02 08:34:35;;;;;;;7.60;4.27;;;;;;;9.20;100.00;99168.02;125443;1099;102183;-77
2023/04/02 08:37:06;;;;;;;10.63;4.40;;;;;;;9.14;100.00;99171.39;125572;1099;104292;-79
2023/04/02 08:39:40;;;;;;;8.03;4.33;;;;;;;9.10;100.00;99169.55;125478;1099;104275;-77
2023/04/02 08:42:22;;;;;;;9.30;4.53;;;;;;;9.10;100.00;99174.78;125084;1099;102141;-77
2023/04/02 08:45:11;;;;;;;9.80;5.20;;;;;;;9.12;100.00;99176.59;125267;1099;101897;-76
2023/04/02 08:47:46;;;;;;;10.73;4.47;;;;;;;9.14;100.00;99181.86;125206;1099;102025;-75
2023/04/02 08:50:28;;;;;;;9.17;4.10;;;;;;;9.10;100.00;99180.02;125043;1099;104301;-76
2023/04/02 08:53:02;;;;;;;7.73;4.37;;;;;;;9.09;100.00;99183.51;125223;1099;104217;-76
2023/04/02 08:55:41;;;;;;;7.27;3.80;;;;;;;9.09;100.00;99184.38;125287;1098;104208;-76
2023/04/02 08:58:26;;;;;;;7.23;4.10;;;;;;;9.08;100.00;99186.97;124863;1099;102034;-78
2023/04/02 09:01:00;;;;;;;8.07;3.80;;;;;;;9.09;100.00;99188.73;125121;1099;104172;-76
2023/04/02 09:03:35;;;;;;;5.90;3.73;;;;;;;9.07;100.00;99190.42;125133;1098;104240;-75
2023/04/02 09:06:12;;;;;;;7.90;3.73;;;;;;;9.09;100.00;99188.73;124915;1099;104361;-75
2023/04/02 09:08:46;;;;;;;5.27;3.60;;;;;;;9.10;100.00;99190.48;124877;1099;101875;-77
2023/04/02 09:11:24;;;;;;;5.83;3.50;;;;;;;9.09;100.00;99199.21;124961;1099;104213;-78
2023/04/02 09:14:00;;;;;;;6.53;3.53;;;;;;;9.11;100.00;99192.27;125010;1099;104284;-78
2023/04/02 09:16:44;;;;;;;4.30;2.90;;;;;;;9.11;100.00;99193.13;124984;1099;101981;-77
2023/04/02 09:19:21;;;;;;;5.10;3.08;;;;;;;9.12;100.00;99191.42;125287;1098;102379;-76
2023/04/02 09:22:18;;;;;;;5.40;2.73;;;;;;;9.11;100.00;99194.88;124842;1099;104184;-77
2023/04/02 09:24:56;;;;;;;4.37;3.20;;;;;;;9.09;100.00;99194.84;125172;1099;102340;-78
2023/04/02 09:27:29;;;;;;;6.63;3.40;;;;;;;9.09;100.00;99197.47;124921;1099;104223;-77
2023/04/02 09:30:06;;;;;;;8.25;3.80;;;;;;;9.11;100.00;99200.11;125201;1099;102584;-75
2023/04/02 09:32:49;;;;;;;10.33;3.63;;;;;;;9.14;100.00;99192.33;125109;1099;104182;-76
2023/04/02 09:35:24;;;;;;;8.20;4.07;;;;;;;9.15;100.00;99197.59;125134;1099;104089;-77
2023/04/02 09:38:17;;;;;;;7.30;4.07;;;;;;;9.15;100.00;99200.21;125135;1099;104192;-76
2023/04/02 09:40:52;;;;;;;16.73;6.40;;;;;;;9.15;100.00;99199.34;124832;1099;104191;-75
2023/04/02 09:43:25;;;;;;;12.87;5.90;;;;;;;9.12;100.00;99202.77;124834;1099;104175;-77
2023/04/02 09:46:03;;;;;;;10.70;5.80;;;;;;;9.12;100.00;99209.73;125360;1099;104281;-77
2023/04/02 09:48:38;;;;;;;9.47;4.73;;;;;;;9.12;100.00;99202.77;125219;1099;102005;-75
2023/04/02 09:51:15;;;;;;;8.27;4.00;;;;;;;9.11;100.00;99206.22;124968;1099;104220;-75
2023/04/02 09:53:48;;;;;;;11.40;4.90;;;;;;;9.11;100.00;99213.20;124647;1099;102220;-76
2023/04/02 09:56:21;;;;;;;7.80;4.00;;;;;;;9.10;100.00;99214.04;125083;1099;101977;-77
2023/04/02 09:59:04;;;;;;;;;;;;;;;9.08;100.00;99213.12;124652;1099;104382;-76
2023/04/02 10:01:37;;;;;;;7.80;3.70;;;;;;;9.08;100.00;99211.39;125196;1099;104063;-77
2023/04/02 10:04:34;;;;;;;6.85;4.20;;;;;;;9.09;100.00;99214.91;125408;1099;102400;-76
2023/04/02 10:07:06;;;;;;;9.90;4.47;;;;;;;9.13;100.00;99214.10;125260;1099;104182;-76
2023/04/02 10:09:38;;;;;;;8.93;4.10;;;;;;;9.16;100.00;99222.92;125258;1099;104351;-76
2023/04/02 10:12:15;;;;;;;6.60;4.03;;;;;;;9.20;100.00;99220.37;124979;1099;104300;-76
2023/04/02 10:14:49;;;;;;;8.90;3.70;;;;;;;9.21;100.00;99223.02;124613;1099;104332;-74
2023/04/02 10:17:25;;;;;;;7.80;3.57;;;;;;;9.22;100.00;99226.51;124637;1098;104255;-74
2023/04/02 10:20:00;;;;;;;5.57;3.37;;;;;;;9.20;100.00;99222.98;124599;1099;104216;-76
2023/04/02 10:22:32;;;;;;;6.33;3.27;;;;;;;9.20;100.00;99230.84;124917;1099;102006;-76
2023/04/02 10:25:06;;;;;;;4.93;3.00;;;;;;;9.21;100.00;99230.87;125165;1098;104249;-75
2023/04/02 10:27:44;;;;;;;5.20;3.25;;;;;;;9.23;100.00;99236.14;125286;1099;104092;-75
2023/04/02 10:30:23;;;;;;;6.33;3.47;;;;;;;9.24;100.00;99230.94;125070;1099;104168;-75
2023/04/02 10:32:59;;;;;;;5.43;3.50;;;;;;;9.27;100.00;99241.47;125177;1099;104201;-76
2023/04/02 10:35:42;;;;;;;4.87;3.30;;;;;;;9.28;100.00;99237.98;125390;1099;104379;-76
2023/04/02 10:38:27;;;;;;;6.80;3.60;;;;;;;9.28;100.00;99237.11;125439;1099;104335;-78
2023/04/02 10:41:05;;;;;;;7.60;3.77;;;;;;;9.28;100.00;99243.22;124812;1099;104221;-78
2023/04/02 10:44:03;;;;;;;7.80;4.17;;;;;;;9.30;100.00;99246.77;124868;1099;111616;-76
2023/04/02 10:46:42;;;;;;;7.93;3.67;;;;;;;9.31;100.00;99248.52;124865;1099;104329;-75
2023/04/02 10:49:21;;;;;;;6.90;3.90;;;;;;;9.34;100.00;99252.94;124652;1099;101885;-75
2023/04/02 10:51:58;;;;;;;8.40;4.50;;;;;;;9.35;100.00;99255.59;125010;1098;104188;-76
2023/04/02 10:54:40;;;;;;;7.27;4.23;;;;;;;9.38;100.00;99254.78;125120;1099;104173;-75
2023/04/02 10:57:20;;;;;;;7.97;4.00;;;;;;;9.41;100.00;99260.08;124840;1099;102435;-75
2023/04/02 10:59:57;;;;;;;8.77;4.00;;;;;;;9.43;100.00;99257.49;125077;1099;104192;-77
2023/04/02 11:02:49;;;;;;;6.83;4.20;;;;;;;9.46;100.00;99265.41;125545;1099;102228;-75
2023/04/02 11:05:29;;;;;;;9.10;4.43;;;;;;;9.46;100.00;99268.03;125298;1099;104172;-76
2023/04/02 11:08:05;;;;;;;8.40;4.63;;;;;;;9.47;100.00;99268.06;125327;1099;104185;-76
2023/04/02 11:10:40;;;;;;;11.93;5.03;;;;;;;9.48;100.00;99271.55;125381;1099;102252;-76
2023/04/02 11:13:22;;;;;;;9.67;5.33;;;;;;;9.49;100.00;99273.30;124886;1099;101877;-76
2023/04/02 11:15:54;;;;;;;11.30;6.00;;;;;;;9.51;100.00;99276.85;125010;1099;104248;-76
2023/04/02 11:18:32;;;;;;;11.33;4.90;;;;;;;9.50;100.00;99280.31;125208;1099;101862;-74
2023/04/02 11:21:40;;;;;;;10.07;5.10;;;;;;;9.49;100.00;99274.20;124749;1100;101875;-78
2023/04/02 11:24:31;;;;;;;9.00;4.40;;;;;;;9.51;100.00;99267.25;125296;1099;101894;-77
2023/04/02 11:27:18;;;;;;;7.13;4.50;;;;;;;9.52;100.00;99278.59;124966;1099;101868;-74
2023/04/02 11:29:52;;;;;;;7.70;4.60;;;;;;;9.53;100.00;99281.25;124861;1098;104245;-75
2023/04/02 11:32:34;;;;;;;5.50;3.62;;;;;;;9.54;100.00;99283.03;124931;1099;104278;-74
2023/04/02 11:35:33;;;;;;;5.53;3.40;;;;;;;9.53;100.00;99280.38;124761;1099;104249;-73
2023/04/02 11:38:57;;;;;;;7.27;3.80;;;;;;;9.51;100.00;99295.19;124661;1099;104291;-75
2023/04/02 11:41:59;;;;;;;8.27;3.90;;;;;;;9.51;100.00;99282.96;124432;1102;101946;-75
2023/04/02 11:44:30;;;;;;;5.33;3.20;;;;;;;9.51;100.00;99288.20;124458;1102;104031;-75
2023/04/02 11:47:19;;;;;;;6.80;3.80;;;;;;;9.51;100.00;99295.19;124567;1102;104335;-73
2023/04/02 11:50:27;;;;;;;6.37;3.40;;;;;;;9.52;100.00;99295.22;124764;1098;104239;-74
2023/04/02 11:53:02;;;;;;;5.43;3.10;;;;;;;9.53;100.00;99294.34;124766;1099;104284;-75
2023/04/02 11:55:35;;;;;;;6.23;3.33;;;;;;;9.53;100.00;99302.20;124370;1102;101886;-74
2023/04/02 11:58:31;;;;;;;4.50;3.10;;;;;;;9.54;100.00;99295.25;124566;1099;102351;-75
2023/04/02 12:01:44;;;;;;;4.37;3.30;;;;;;;9.56;100.00;99306.63;124466;1102;104329;-76